sensor_id;sensor_type;location;lat;lon;timestamp;pressure;altitude;pressure_sealevel;temperature;humidity
1029;BME280;503;48.120;11.488;2022-09-12T00:00:08;95585.53;;;16.18;64.18
1029;BME280;503;48.120;11.488;2022-09-12T00:02:33;95589.00;;;16.18;64.43
1029;BME280;503;48.120;11.488;2022-09-12T00:04:58;95583.63;;;16.18;64.18
1029;BME280;503;48.120;11.488;2022-09-12T00:07:24;95580.34;;;16.13;63.92
1029;BME280;503;48.120;11.488;2022-09-12T00:09:49;95581.78;;;16.10;63.77
1029;BME280;503;48.120;11.488;2022-09-12T00:12:14;95581.94;;;16.14;63.66
1029;BME280;503;48.120;11.488;2022-09-12T00:14:39;95575.78;;;16.13;63.45
1029;BME280;503;48.120;11.488;2022-09-12T00:17:05;95571.84;;;16.10;63.54
1029;BME280;503;48.120;11.488;2022-09-12T00:19:30;95577.53;;;16.09;63.58
1029;BME280;503;48.120;11.488;2022-09-12T00:21:55;95572.50;;;16.07;63.28
1029;BME280;503;48.120;11.488;2022-09-12T00:24:20;95567.34;;;16.02;63.60
1029;BME280;503;48.120;11.488;2022-09-12T00:26:46;95562.94;;;15.98;63.56
1029;BME280;503;48.120;11.488;2022-09-12T00:29:15;95567.13;;;16.07;63.29
1029;BME280;503;48.120;11.488;2022-09-12T00:31:40;95563.16;;;15.93;63.52
1029;BME280;503;48.120;11.488;2022-09-12T00:34:06;95566.13;;;15.91;63.80
1029;BME280;503;48.120;11.488;2022-09-12T00:36:31;95570.28;;;15.89;63.76
1029;BME280;503;48.120;11.488;2022-09-12T00:38:56;95565.69;;;15.89;63.97
1029;BME280;503;48.120;11.488;2022-09-12T00:41:26;95564.56;;;15.90;63.90
1029;BME280;503;48.120;11.488;2022-09-12T00:46:42;95554.97;;;15.89;63.67
1029;BME280;503;48.120;11.488;2022-09-12T00:49:14;95552.91;;;15.86;63.79
1029;BME280;503;48.120;11.488;2022-09-12T00:51:42;95550.03;;;15.91;63.84
1029;BME280;503;48.120;11.488;2022-09-12T00:54:11;95548.94;;;15.92;63.61
1029;BME280;503;48.120;11.488;2022-09-12T00:56:38;95545.00;;;15.90;63.74
1029;BME280;503;48.120;11.488;2022-09-12T00:59:13;95549.34;;;15.82;63.66
1029;BME280;503;48.120;11.488;2022-09-12T01:01:39;95545.06;;;15.81;63.53
1029;BME280;503;48.120;11.488;2022-09-12T01:04:06;95544.63;;;15.79;63.71
1029;BME280;503;48.120;11.488;2022-09-12T01:06:34;95544.63;;;15.79;63.94
1029;BME280;503;48.120;11.488;2022-09-12T01:09:00;95538.47;;;15.78;63.90
1029;BME280;503;48.120;11.488;2022-09-12T01:11:28;95544.94;;;15.77;64.08
1029;BME280;503;48.120;11.488;2022-09-12T01:13:54;95541.69;;;15.72;63.89
1029;BME280;503;48.120;11.488;2022-09-12T01:16:19;95534.13;;;15.65;63.85
1029;BME280;503;48.120;11.488;2022-09-12T01:21:22;95533.06;;;15.66;63.87
1029;BME280;503;48.120;11.488;2022-09-12T01:37:02;95519.75;;;15.40;63.94
1029;BME280;503;48.120;11.488;2022-09-12T01:39:35;95523.25;;;15.41;64.15
1029;BME280;503;48.120;11.488;2022-09-12T01:42:07;95517.25;;;15.35;64.24
1029;BME280;503;48.120;11.488;2022-09-12T01:47:24;95525.50;;;15.30;64.09
1029;BME280;503;48.120;11.488;2022-09-12T01:50:07;95522.03;;;15.29;63.83
1029;BME280;503;48.120;11.488;2022-09-12T01:55:07;95515.63;;;15.22;64.16
1029;BME280;503;48.120;11.488;2022-09-12T01:57:43;95514.06;;;15.21;63.85
1029;BME280;503;48.120;11.488;2022-09-12T02:00:11;95504.56;;;15.23;64.05
1029;BME280;503;48.120;11.488;2022-09-12T02:02:38;95498.09;;;15.24;63.79
1029;BME280;503;48.120;11.488;2022-09-12T02:10:03;95498.75;;;15.21;63.80
1029;BME280;503;48.120;11.488;2022-09-12T02:12:31;95492.63;;;15.21;64.16
1029;BME280;503;48.120;11.488;2022-09-12T02:15:01;95488.34;;;15.20;63.72
1029;BME280;503;48.120;11.488;2022-09-12T02:17:27;95486.34;;;15.17;64.14
1029;BME280;503;48.120;11.488;2022-09-12T02:19:56;95480.19;;;15.16;63.67
1029;BME280;503;48.120;11.488;2022-09-12T02:22:24;95482.41;;;15.14;63.62
1029;BME280;503;48.120;11.488;2022-09-12T02:24:51;95480.81;;;15.13;63.64
1029;BME280;503;48.120;11.488;2022-09-12T02:30:03;95471.09;;;15.08;63.81
1029;BME280;503;48.120;11.488;2022-09-12T02:33:16;95479.84;;;15.18;63.72
1029;BME280;503;48.120;11.488;2022-09-12T02:37:56;95476.25;;;15.14;64.13
1029;BME280;503;48.120;11.488;2022-09-12T02:40:24;95472.78;;;15.13;63.76
1029;BME280;503;48.120;11.488;2022-09-12T02:42:49;95473.13;;;15.12;63.66
1029;BME280;503;48.120;11.488;2022-09-12T02:45:15;95471.09;;;15.08;63.35
1029;BME280;503;48.120;11.488;2022-09-12T02:47:52;95473.31;;;15.06;63.40
1029;BME280;503;48.120;11.488;2022-09-12T02:50:20;95473.94;;;15.03;63.95
1029;BME280;503;48.120;11.488;2022-09-12T02:52:45;95476.81;;;14.98;63.87
1029;BME280;503;48.120;11.488;2022-09-12T02:55:10;95475.56;;;14.96;63.85
1029;BME280;503;48.120;11.488;2022-09-12T02:57:36;95470.06;;;14.92;63.92
1029;BME280;503;48.120;11.488;2022-09-12T03:00:02;95467.53;;;14.96;63.97
1029;BME280;503;48.120;11.488;2022-09-12T03:02:42;95470.22;;;14.96;64.11
1029;BME280;503;48.120;11.488;2022-09-12T03:05:18;95462.19;;;14.96;64.00
1029;BME280;503;48.120;11.488;2022-09-12T03:07:54;95462.81;;;14.93;63.67
1029;BME280;503;48.120;11.488;2022-09-12T03:10:40;95466.16;;;14.90;63.82
1029;BME280;503;48.120;11.488;2022-09-12T03:20:52;95458.16;;;14.81;63.65
1029;BME280;503;48.120;11.488;2022-09-12T03:23:35;95453.13;;;14.79;63.97
1029;BME280;503;48.120;11.488;2022-09-12T03:26:08;95453.91;;;14.80;63.58
1029;BME280;503;48.120;11.488;2022-09-12T03:28:34;95458.50;;;14.79;63.86
1029;BME280;503;48.120;11.488;2022-09-12T03:31:10;95452.03;;;14.80;63.86
1029;BME280;503;48.120;11.488;2022-09-12T03:33:35;95462.59;;;14.77;63.52
1029;BME280;503;48.120;11.488;2022-09-12T03:36:00;95455.66;;;14.76;63.53
1029;BME280;503;48.120;11.488;2022-09-12T03:38:26;95461.34;;;14.74;63.37
1029;BME280;503;48.120;11.488;2022-09-12T03:40:51;95461.66;;;14.73;63.54
1029;BME280;503;48.120;11.488;2022-09-12T03:43:16;95454.41;;;14.73;63.77
1029;BME280;503;48.120;11.488;2022-09-12T03:45:41;95460.53;;;14.74;63.42
1029;BME280;503;48.120;11.488;2022-09-12T03:48:06;95454.72;;;14.72;63.45
1029;BME280;503;48.120;11.488;2022-09-12T03:50:32;95462.31;;;14.70;63.23
1029;BME280;503;48.120;11.488;2022-09-12T03:52:58;95459.16;;;14.68;63.55
1029;BME280;503;48.120;11.488;2022-09-12T03:55:24;95455.69;;;14.67;63.70
1029;BME280;503;48.120;11.488;2022-09-12T03:57:51;95459.47;;;14.66;63.30
1029;BME280;503;48.120;11.488;2022-09-12T04:00:17;95453.69;;;14.64;63.13
1029;BME280;503;48.120;11.488;2022-09-12T04:02:42;95448.16;;;14.61;63.08
1029;BME280;503;48.120;11.488;2022-09-12T04:05:07;95454.16;;;14.57;63.26
1029;BME280;503;48.120;11.488;2022-09-12T04:07:33;95457.00;;;14.52;63.72
1029;BME280;503;48.120;11.488;2022-09-12T04:09:58;95457.78;;;14.53;63.39
1029;BME280;503;48.120;11.488;2022-09-12T04:12:23;95462.34;;;14.52;63.54
1029;BME280;503;48.120;11.488;2022-09-12T04:14:48;95457.34;;;14.51;63.70
1029;BME280;503;48.120;11.488;2022-09-12T04:17:13;95459.22;;;14.50;63.48
1029;BME280;503;48.120;11.488;2022-09-12T04:19:39;95469.16;;;14.50;63.46
1029;BME280;503;48.120;11.488;2022-09-12T04:22:04;95458.25;;;14.46;63.63
1029;BME280;503;48.120;11.488;2022-09-12T04:24:29;95468.97;;;14.46;63.66
1029;BME280;503;48.120;11.488;2022-09-12T04:26:55;95466.78;;;14.40;63.97
1029;BME280;503;48.120;11.488;2022-09-12T04:29:21;95466.31;;;14.38;63.39
1029;BME280;503;48.120;11.488;2022-09-12T04:31:46;95470.75;;;14.34;63.82
1029;BME280;503;48.120;11.488;2022-09-12T04:34:11;95464.63;;;14.33;63.80
1029;BME280;503;48.120;11.488;2022-09-12T04:36:37;95465.41;;;14.34;64.13
1029;BME280;503;48.120;11.488;2022-09-12T04:39:02;95460.84;;;14.34;64.04
1029;BME280;503;48.120;11.488;2022-09-12T04:41:29;95458.91;;;14.43;63.63
1029;BME280;503;48.120;11.488;2022-09-12T04:43:59;95461.72;;;14.55;63.19
1029;BME280;503;48.120;11.488;2022-09-12T04:46:28;95454.16;;;14.57;63.16
1029;BME280;503;48.120;11.488;2022-09-12T04:48:54;95462.19;;;14.57;62.86
1029;BME280;503;48.120;11.488;2022-09-12T04:51:29;95453.38;;;14.57;62.77
1029;BME280;503;48.120;11.488;2022-09-12T04:53:56;95455.41;;;14.60;63.06
1029;BME280;503;48.120;11.488;2022-09-12T04:56:22;95455.09;;;14.62;62.99
1029;BME280;503;48.120;11.488;2022-09-12T04:58:47;95458.41;;;14.59;62.88
1029;BME280;503;48.120;11.488;2022-09-12T05:01:17;95455.72;;;14.59;62.88
1029;BME280;503;48.120;11.488;2022-09-12T05:03:44;95462.34;;;14.61;63.22
1029;BME280;503;48.120;11.488;2022-09-12T05:06:10;95459.81;;;14.65;63.26
1029;BME280;503;48.120;11.488;2022-09-12T05:08:36;95462.94;;;14.67;63.16
1029;BME280;503;48.120;11.488;2022-09-12T05:11:04;95467.25;;;14.59;63.15
1029;BME280;503;48.120;11.488;2022-09-12T05:13:31;95461.88;;;14.59;63.09
1029;BME280;503;48.120;11.488;2022-09-12T05:15:57;95462.00;;;14.63;63.57
1029;BME280;503;48.120;11.488;2022-09-12T05:18:23;95472.88;;;14.66;63.71
1029;BME280;503;48.120;11.488;2022-09-12T05:20:48;95472.69;;;14.71;63.68
1029;BME280;503;48.120;11.488;2022-09-12T05:23:14;95465.72;;;14.79;63.50
1029;BME280;503;48.120;11.488;2022-09-12T05:25:44;95472.16;;;14.87;63.17
1029;BME280;503;48.120;11.488;2022-09-12T05:28:11;95471.97;;;14.92;63.05
1029;BME280;503;48.120;11.488;2022-09-12T05:30:36;95472.13;;;14.95;63.38
1029;BME280;503;48.120;11.488;2022-09-12T05:33:01;95479.97;;;15.00;63.01
1029;BME280;503;48.120;11.488;2022-09-12T05:35:27;95482.47;;;15.05;62.98
1029;BME280;503;48.120;11.488;2022-09-12T05:37:52;95481.63;;;15.14;62.77
1029;BME280;503;48.120;11.488;2022-09-12T05:40:17;95486.16;;;15.22;62.87
1029;BME280;503;48.120;11.488;2022-09-12T05:42:43;95481.38;;;15.27;63.05
1029;BME280;503;48.120;11.488;2022-09-12T05:45:08;95487.78;;;15.35;62.44
1029;BME280;503;48.120;11.488;2022-09-12T05:47:33;95474.34;;;15.44;62.82
1029;BME280;503;48.120;11.488;2022-09-12T05:49:58;95470.94;;;15.55;62.59
1029;BME280;503;48.120;11.488;2022-09-12T05:52:24;95469.34;;;15.63;62.87
1029;BME280;503;48.120;11.488;2022-09-12T05:54:49;95472.75;;;15.72;63.29
1029;BME280;503;48.120;11.488;2022-09-12T05:57:14;95473.56;;;15.85;63.11
1029;BME280;503;48.120;11.488;2022-09-12T05:59:39;95480.75;;;15.93;63.06
1029;BME280;503;48.120;11.488;2022-09-12T06:02:05;95480.47;;;16.07;62.32
1029;BME280;503;48.120;11.488;2022-09-12T06:04:30;95485.53;;;16.21;62.20
1029;BME280;503;48.120;11.488;2022-09-12T06:06:55;95482.00;;;16.29;62.10
1029;BME280;503;48.120;11.488;2022-09-12T06:09:21;95478.56;;;16.41;61.68
1029;BME280;503;48.120;11.488;2022-09-12T06:11:46;95483.50;;;16.51;61.63
1029;BME280;503;48.120;11.488;2022-09-12T06:14:12;95479.59;;;16.60;61.46
1029;BME280;503;48.120;11.488;2022-09-12T06:16:38;95472.69;;;16.72;61.13
1029;BME280;503;48.120;11.488;2022-09-12T06:19:10;95473.81;;;16.83;61.09
1029;BME280;503;48.120;11.488;2022-09-12T06:21:36;95479.88;;;16.92;60.78
1029;BME280;503;48.120;11.488;2022-09-12T06:24:03;95475.97;;;17.02;60.90
1029;BME280;503;48.120;11.488;2022-09-12T06:26:28;95482.44;;;17.13;60.68
1029;BME280;503;48.120;11.488;2022-09-12T06:28:54;95492.75;;;17.23;60.71
1029;BME280;503;48.120;11.488;2022-09-12T06:31:24;95491.16;;;17.34;60.46
1029;BME280;503;48.120;11.488;2022-09-12T06:33:50;95475.69;;;17.44;59.85
1029;BME280;503;48.120;11.488;2022-09-12T06:36:16;95470.09;;;17.49;59.50
1029;BME280;503;48.120;11.488;2022-09-12T06:38:42;95470.06;;;17.61;59.51
1029;BME280;503;48.120;11.488;2022-09-12T06:41:08;95469.59;;;17.71;59.31
1029;BME280;503;48.120;11.488;2022-09-12T06:43:35;95469.81;;;17.78;59.26
1029;BME280;503;48.120;11.488;2022-09-12T06:46:01;95475.84;;;17.87;58.99
1029;BME280;503;48.120;11.488;2022-09-12T06:48:26;95471.78;;;17.93;58.48
1029;BME280;503;48.120;11.488;2022-09-12T06:50:58;95472.22;;;17.96;58.37
1029;BME280;503;48.120;11.488;2022-09-12T06:53:25;95474.75;;;18.04;58.49
1029;BME280;503;48.120;11.488;2022-09-12T06:55:53;95479.28;;;18.16;58.30
1029;BME280;503;48.120;11.488;2022-09-12T06:58:19;95478.72;;;18.23;58.04
1029;BME280;503;48.120;11.488;2022-09-12T07:00:44;95478.13;;;18.29;57.75
1029;BME280;503;48.120;11.488;2022-09-12T07:03:09;95484.47;;;18.37;57.80
1029;BME280;503;48.120;11.488;2022-09-12T07:05:35;95484.75;;;18.48;57.44
1029;BME280;503;48.120;11.488;2022-09-12T07:08:01;95488.06;;;18.57;57.38
1029;BME280;503;48.120;11.488;2022-09-12T07:10:26;95478.16;;;18.61;57.26
1029;BME280;503;48.120;11.488;2022-09-12T07:12:51;95483.41;;;18.69;56.78
1029;BME280;503;48.120;11.488;2022-09-12T07:15:16;95477.06;;;18.78;56.53
1029;BME280;503;48.120;11.488;2022-09-12T07:17:44;95485.41;;;18.88;56.67
1029;BME280;503;48.120;11.488;2022-09-12T07:20:09;95479.84;;;18.97;56.21
1029;BME280;503;48.120;11.488;2022-09-12T07:22:34;95480.44;;;19.06;55.98
1029;BME280;503;48.120;11.488;2022-09-12T07:24:59;95484.44;;;19.12;56.06
1029;BME280;503;48.120;11.488;2022-09-12T07:27:25;95487.81;;;19.25;56.42
1029;BME280;503;48.120;11.488;2022-09-12T07:29:50;95484.72;;;19.07;55.66
1029;BME280;503;48.120;11.488;2022-09-12T07:32:15;95486.50;;;19.35;55.49
1029;BME280;503;48.120;11.488;2022-09-12T07:34:40;95481.53;;;19.37;55.29
1029;BME280;503;48.120;11.488;2022-09-12T07:37:05;95480.06;;;19.23;55.82
1029;BME280;503;48.120;11.488;2022-09-12T07:39:31;95481.53;;;19.37;54.74
1029;BME280;503;48.120;11.488;2022-09-12T07:41:56;95489.41;;;19.10;56.00
1029;BME280;503;48.120;11.488;2022-09-12T07:44:22;95488.38;;;19.15;55.46
1029;BME280;503;48.120;11.488;2022-09-12T07:46:49;95495.94;;;19.60;54.86
1029;BME280;503;48.120;11.488;2022-09-12T07:49:14;95493.47;;;19.90;54.66
1029;BME280;503;48.120;11.488;2022-09-12T07:51:39;95490.44;;;19.92;53.09
1029;BME280;503;48.120;11.488;2022-09-12T07:54:07;95490.59;;;20.18;53.22
1029;BME280;503;48.120;11.488;2022-09-12T07:56:33;95487.22;;;20.25;52.50
1029;BME280;503;48.120;11.488;2022-09-12T07:58:58;95483.09;;;20.31;52.74
1029;BME280;503;48.120;11.488;2022-09-12T08:01:24;95478.47;;;20.32;51.80
1029;BME280;503;48.120;11.488;2022-09-12T08:03:52;95479.50;;;20.23;52.17
1029;BME280;503;48.120;11.488;2022-09-12T08:06:19;95482.31;;;20.31;52.41
1029;BME280;503;48.120;11.488;2022-09-12T08:08:45;95488.38;;;20.24;52.16
1029;BME280;503;48.120;11.488;2022-09-12T08:11:12;95487.50;;;20.59;51.59
1029;BME280;503;48.120;11.488;2022-09-12T08:13:38;95503.53;;;20.71;51.71
1029;BME280;503;48.120;11.488;2022-09-12T08:16:05;95494.34;;;20.75;50.93
1029;BME280;503;48.120;11.488;2022-09-12T08:18:31;95494.16;;;20.88;50.46
1029;BME280;503;48.120;11.488;2022-09-12T08:21:03;95491.59;;;20.95;50.32
1029;BME280;503;48.120;11.488;2022-09-12T08:23:28;95491.91;;;21.16;50.13
1029;BME280;503;48.120;11.488;2022-09-12T08:25:54;95491.59;;;20.95;49.93
1029;BME280;503;48.120;11.488;2022-09-12T08:28:20;95493.63;;;21.01;49.60
1029;BME280;503;48.120;11.488;2022-09-12T08:30:45;95490.59;;;21.29;49.21
1029;BME280;503;48.120;11.488;2022-09-12T08:33:10;95490.59;;;21.29;48.05
1029;BME280;503;48.120;11.488;2022-09-12T08:35:35;95488.47;;;21.42;47.99
1029;BME280;503;48.120;11.488;2022-09-12T08:38:00;95494.78;;;21.50;47.57
1029;BME280;503;48.120;11.488;2022-09-12T08:40:26;95486.66;;;21.50;47.52
1029;BME280;503;48.120;11.488;2022-09-12T08:43:16;95495.28;;;21.59;47.30
1029;BME280;503;48.120;11.488;2022-09-12T08:45:41;95491.22;;;21.72;46.77
1029;BME280;503;48.120;11.488;2022-09-12T08:48:10;95486.44;;;21.62;47.58
1029;BME280;503;48.120;11.488;2022-09-12T08:50:36;95493.59;;;21.77;48.00
1029;BME280;503;48.120;11.488;2022-09-12T08:53:02;95490.84;;;20.98;47.61
1029;BME280;503;48.120;11.488;2022-09-12T08:55:33;95491.84;;;21.13;48.15
1029;BME280;503;48.120;11.488;2022-09-12T08:57:59;95483.44;;;21.41;47.38
1029;BME280;503;48.120;11.488;2022-09-12T09:00:27;95482.34;;;21.45;47.36
1029;BME280;503;48.120;11.488;2022-09-12T09:03:08;95490.44;;;21.72;46.13
1029;BME280;503;48.120;11.488;2022-09-12T09:13:27;95476.47;;;22.00;44.16
1029;BME280;503;48.120;11.488;2022-09-12T09:16:32;95471.03;;;21.66;44.71
1029;BME280;503;48.120;11.488;2022-09-12T09:19:00;95469.41;;;21.92;44.98
1029;BME280;503;48.120;11.488;2022-09-12T09:21:31;95464.13;;;22.02;45.13
1029;BME280;503;48.120;11.488;2022-09-12T09:24:01;95467.53;;;22.29;44.84
1029;BME280;503;48.120;11.488;2022-09-12T09:26:29;95458.75;;;22.40;44.63
1029;BME280;503;48.120;11.488;2022-09-12T09:28:58;95456.91;;;22.47;44.29
1029;BME280;503;48.120;11.488;2022-09-12T09:31:27;95448.28;;;22.42;43.71
1029;BME280;503;48.120;11.488;2022-09-12T09:33:56;95450.84;;;22.24;43.20
1029;BME280;503;48.120;11.488;2022-09-12T09:43:42;95453.38;;;22.43;42.39
1029;BME280;503;48.120;11.488;2022-09-12T09:46:08;95453.53;;;22.61;43.33
1029;BME280;503;48.120;11.488;2022-09-12T09:48:34;95456.66;;;22.26;43.61
1029;BME280;503;48.120;11.488;2022-09-12T09:51:02;95447.97;;;22.47;42.38
1029;BME280;503;48.120;11.488;2022-09-12T09:53:31;95454.81;;;22.34;41.66
1029;BME280;503;48.120;11.488;2022-09-12T09:55:59;95452.44;;;22.28;41.73
1029;BME280;503;48.120;11.488;2022-09-12T09:58:27;95448.94;;;22.28;41.98
1029;BME280;503;48.120;11.488;2022-09-12T10:00:56;95455.41;;;22.53;41.62
1029;BME280;503;48.120;11.488;2022-09-12T10:03:24;95450.31;;;22.11;42.19
1029;BME280;503;48.120;11.488;2022-09-12T10:08:22;95449.88;;;22.43;41.32
1029;BME280;503;48.120;11.488;2022-09-12T10:10:55;95446.75;;;22.07;41.69
1029;BME280;503;48.120;11.488;2022-09-12T10:16:03;95454.19;;;22.51;40.98
1029;BME280;503;48.120;11.488;2022-09-12T10:18:37;95446.47;;;22.12;41.43
1029;BME280;503;48.120;11.488;2022-09-12T10:21:13;95445.81;;;22.67;39.98
1029;BME280;503;48.120;11.488;2022-09-12T10:23:39;95446.84;;;22.92;39.57
1029;BME280;503;48.120;11.488;2022-09-12T10:26:10;95440.31;;;23.00;39.86
1029;BME280;503;48.120;11.488;2022-09-12T10:28:37;95437.88;;;23.40;38.98
1029;BME280;503;48.120;11.488;2022-09-12T10:31:03;95443.22;;;23.25;39.28
1029;BME280;503;48.120;11.488;2022-09-12T10:33:29;95443.66;;;23.38;39.11
1029;BME280;503;48.120;11.488;2022-09-12T10:35:55;95429.38;;;23.48;39.46
1029;BME280;503;48.120;11.488;2022-09-12T10:38:25;95441.63;;;21.68;41.37
1029;BME280;503;48.120;11.488;2022-09-12T10:40:59;95435.09;;;22.81;40.31
1029;BME280;503;48.120;11.488;2022-09-12T10:43:29;95428.28;;;22.98;39.67
1029;BME280;503;48.120;11.488;2022-09-12T10:45:58;95435.25;;;22.95;38.27
1029;BME280;503;48.120;11.488;2022-09-12T10:48:28;95427.75;;;23.33;38.69
1029;BME280;503;48.120;11.488;2022-09-12T10:50:54;95427.31;;;23.24;39.71
1029;BME280;503;48.120;11.488;2022-09-12T10:56:18;95431.84;;;23.75;39.50
1029;BME280;503;48.120;11.488;2022-09-12T11:11:58;95421.50;;;24.05;38.34
1029;BME280;503;48.120;11.488;2022-09-12T11:22:24;95416.91;;;24.27;37.55
1029;BME280;503;48.120;11.488;2022-09-12T11:30:01;95410.69;;;24.23;37.65
1029;BME280;503;48.120;11.488;2022-09-12T11:37:45;95407.91;;;23.22;40.16
1029;BME280;503;48.120;11.488;2022-09-12T11:42:44;95407.44;;;23.78;39.58
1029;BME280;503;48.120;11.488;2022-09-12T11:45:12;95411.06;;;24.25;37.39
1029;BME280;503;48.120;11.488;2022-09-12T11:47:39;95402.47;;;24.05;37.66
1029;BME280;503;48.120;11.488;2022-09-12T11:50:14;95402.13;;;24.25;37.96
1029;BME280;503;48.120;11.488;2022-09-12T11:52:43;95408.00;;;24.41;37.23
1029;BME280;503;48.120;11.488;2022-09-12T11:55:18;95396.41;;;24.62;36.84
1029;BME280;503;48.120;11.488;2022-09-12T11:57:52;95392.91;;;24.83;36.17
1029;BME280;503;48.120;11.488;2022-09-12T12:00:22;95388.63;;;24.43;36.33
1029;BME280;503;48.120;11.488;2022-09-12T12:07:50;95396.34;;;25.37;35.31
1029;BME280;503;48.120;11.488;2022-09-12T12:12:50;95387.03;;;25.31;35.28
1029;BME280;503;48.120;11.488;2022-09-12T12:15:17;95390.00;;;25.79;35.02
1029;BME280;503;48.120;11.488;2022-09-12T12:17:42;95393.94;;;25.57;35.38
1029;BME280;503;48.120;11.488;2022-09-12T12:20:12;95394.00;;;25.42;36.65
1029;BME280;503;48.120;11.488;2022-09-12T12:22:43;95387.22;;;25.93;35.54
1029;BME280;503;48.120;11.488;2022-09-12T12:32:53;95379.66;;;26.23;34.20
1029;BME280;503;48.120;11.488;2022-09-12T12:38:01;95377.41;;;26.66;33.84
1029;BME280;503;48.120;11.488;2022-09-12T12:40:27;95377.75;;;26.75;32.99
1029;BME280;503;48.120;11.488;2022-09-12T12:42:57;95368.41;;;26.17;33.59
1029;BME280;503;48.120;11.488;2022-09-12T12:47:58;95376.56;;;24.94;35.43
1029;BME280;503;48.120;11.488;2022-09-12T12:50:26;95366.28;;;25.76;35.01
1029;BME280;503;48.120;11.488;2022-09-12T12:53:01;95364.81;;;26.27;33.85
1029;BME280;503;48.120;11.488;2022-09-12T12:55:29;95373.44;;;26.78;33.92
1029;BME280;503;48.120;11.488;2022-09-12T12:57:55;95365.63;;;26.80;32.78
1029;BME280;503;48.120;11.488;2022-09-12T13:05:45;95351.72;;;27.46;33.22
1029;BME280;503;48.120;11.488;2022-09-12T13:10:49;95360.94;;;27.25;32.07
1029;BME280;503;48.120;11.488;2022-09-12T13:13:21;95347.56;;;26.48;32.11
1029;BME280;503;48.120;11.488;2022-09-12T13:15:49;95348.16;;;25.02;34.99
1029;BME280;503;48.120;11.488;2022-09-12T13:18:25;95351.63;;;26.18;35.17
1029;BME280;503;48.120;11.488;2022-09-12T13:20:58;95339.09;;;26.80;32.61
1029;BME280;503;48.120;11.488;2022-09-12T13:23:28;95333.03;;;27.03;31.87
1029;BME280;503;48.120;11.488;2022-09-12T13:25:55;95325.91;;;27.16;30.84
1029;BME280;503;48.120;11.488;2022-09-12T13:28:20;95323.13;;;26.79;32.22
1029;BME280;503;48.120;11.488;2022-09-12T13:33:32;95323.06;;;25.71;33.39
1029;BME280;503;48.120;11.488;2022-09-12T13:43:50;95325.59;;;27.07;31.01
1029;BME280;503;48.120;11.488;2022-09-12T13:46:17;95321.53;;;27.23;31.10
1029;BME280;503;48.120;11.488;2022-09-12T13:48:45;95314.41;;;27.32;30.77
1029;BME280;503;48.120;11.488;2022-09-12T13:51:20;95318.56;;;27.06;31.60
1029;BME280;503;48.120;11.488;2022-09-12T13:53:46;95317.06;;;27.39;32.31
1029;BME280;503;48.120;11.488;2022-09-12T13:56:18;95310.44;;;27.40;31.22
1029;BME280;503;48.120;11.488;2022-09-12T13:58:57;95303.16;;;27.61;31.59
1029;BME280;503;48.120;11.488;2022-09-12T14:01:23;95304.50;;;27.45;30.85
1029;BME280;503;48.120;11.488;2022-09-12T14:03:55;95295.94;;;27.43;30.18
1029;BME280;503;48.120;11.488;2022-09-12T14:06:53;95307.03;;;26.91;30.65
1029;BME280;503;48.120;11.488;2022-09-12T14:09:22;95302.53;;;26.70;30.96
1029;BME280;503;48.120;11.488;2022-09-12T14:11:49;95300.00;;;26.94;31.09
1029;BME280;503;48.120;11.488;2022-09-12T14:16:46;95304.16;;;26.64;31.32
1029;BME280;503;48.120;11.488;2022-09-12T14:19:11;95291.13;;;26.34;32.74
1029;BME280;503;48.120;11.488;2022-09-12T14:21:40;95291.44;;;25.91;33.38
1029;BME280;503;48.120;11.488;2022-09-12T14:24:05;95291.81;;;25.93;33.20
1029;BME280;503;48.120;11.488;2022-09-12T14:26:33;95295.97;;;26.12;33.66
1029;BME280;503;48.120;11.488;2022-09-12T14:28:59;95293.88;;;26.34;32.80
1029;BME280;503;48.120;11.488;2022-09-12T14:31:29;95289.59;;;26.33;32.59
1029;BME280;503;48.120;11.488;2022-09-12T14:34:07;95287.16;;;26.50;32.78
1029;BME280;503;48.120;11.488;2022-09-12T14:36:34;95281.69;;;26.50;32.66
1029;BME280;503;48.120;11.488;2022-09-12T14:39:01;95279.59;;;26.64;33.11
1029;BME280;503;48.120;11.488;2022-09-12T14:41:36;95283.97;;;26.55;32.43
1029;BME280;503;48.120;11.488;2022-09-12T14:44:06;95280.16;;;26.49;32.54
1029;BME280;503;48.120;11.488;2022-09-12T14:46:36;95282.19;;;26.30;33.01
1029;BME280;503;48.120;11.488;2022-09-12T14:49:11;95274.72;;;26.41;32.84
1029;BME280;503;48.120;11.488;2022-09-12T14:51:40;95279.03;;;26.35;32.03
1029;BME280;503;48.120;11.488;2022-09-12T14:56:56;95282.13;;;26.44;32.25
1029;BME280;503;48.120;11.488;2022-09-12T14:59:28;95279.25;;;26.62;32.28
1029;BME280;503;48.120;11.488;2022-09-12T15:04:48;95285.44;;;27.08;31.57
1029;BME280;503;48.120;11.488;2022-09-12T15:09:58;95271.25;;;27.20;31.26
1029;BME280;503;48.120;11.488;2022-09-12T15:12:24;95269.59;;;27.30;31.21
1029;BME280;503;48.120;11.488;2022-09-12T15:14:49;95274.66;;;27.28;31.40
1029;BME280;503;48.120;11.488;2022-09-12T15:17:15;95272.53;;;27.42;31.65
1029;BME280;503;48.120;11.488;2022-09-12T15:19:40;95273.75;;;27.38;30.88
1029;BME280;503;48.120;11.488;2022-09-12T15:22:05;95275.81;;;27.30;30.88
1029;BME280;503;48.120;11.488;2022-09-12T15:24:31;95270.44;;;26.40;32.29
1029;BME280;503;48.120;11.488;2022-09-12T15:26:56;95278.41;;;26.65;31.92
1029;BME280;503;48.120;11.488;2022-09-12T15:29:21;95263.84;;;26.83;32.27
1029;BME280;503;48.120;11.488;2022-09-12T15:31:46;95269.63;;;26.88;31.88
1029;BME280;503;48.120;11.488;2022-09-12T15:34:14;95268.03;;;26.50;32.83
1029;BME280;503;48.120;11.488;2022-09-12T15:36:40;95275.53;;;26.35;32.52
1029;BME280;503;48.120;11.488;2022-09-12T15:39:05;95269.72;;;26.33;32.75
1029;BME280;503;48.120;11.488;2022-09-12T15:41:31;95265.72;;;26.52;32.69
1029;BME280;503;48.120;11.488;2022-09-12T15:43:56;95266.81;;;26.58;32.49
1029;BME280;503;48.120;11.488;2022-09-12T15:46:22;95260.28;;;26.41;32.35
1029;BME280;503;48.120;11.488;2022-09-12T15:48:47;95261.38;;;26.54;32.54
1029;BME280;503;48.120;11.488;2022-09-12T15:51:13;95264.13;;;26.51;32.42
1029;BME280;503;48.120;11.488;2022-09-12T15:53:39;95251.00;;;25.83;33.32